sensor_id;sensor_type;location;lat;lon;timestamp;pressure;altitude;pressure_sealevel;temperature;humidity
79123;BME280;68526;44.600;26.032;2023-08-12T00:00:14;100907.13;;;21.75;54.85
79123;BME280;68526;44.600;26.032;2023-08-12T00:00:30;100904.34;;;21.75;54.95
79123;BME280;68526;44.600;26.032;2023-08-12T00:00:46;100907.53;;;21.73;54.78
79123;BME280;68526;44.600;26.032;2023-08-12T00:01:02;100902.34;;;21.75;54.80
79123;BME280;68526;44.600;26.032;2023-08-12T00:01:18;100907.94;;;21.75;54.73
79123;BME280;68526;44.600;26.032;2023-08-12T00:01:36;100904.00;;;21.76;54.59
79123;BME280;68526;44.600;26.032;2023-08-12T00:01:52;100905.16;;;21.75;54.90
79123;BME280;68526;44.600;26.032;2023-08-12T00:02:08;100903.59;;;21.78;54.70
79123;BME280;68526;44.600;26.032;2023-08-12T00:02:24;100901.19;;;21.76;54.78
79123;BME280;68526;44.600;26.032;2023-08-12T00:02:40;100904.00;;;21.76;54.62
79123;BME280;68526;44.600;26.032;2023-08-12T00:02:56;100905.53;;;21.74;54.78
79123;BME280;68526;44.600;26.032;2023-08-12T00:03:13;100903.53;;;21.74;54.86
79123;BME280;68526;44.600;26.032;2023-08-12T00:03:29;100905.16;;;21.75;54.82
79123;BME280;68526;44.600;26.032;2023-08-12T00:03:47;100901.56;;;21.75;54.65
79123;BME280;68526;44.600;26.032;2023-08-12T00:04:03;100897.19;;;21.74;54.56
79123;BME280;68526;44.600;26.032;2023-08-12T00:04:19;100892.00;;;21.72;54.71
79123;BME280;68526;44.600;26.032;2023-08-12T00:04:35;100905.94;;;21.72;54.70
79123;BME280;68526;44.600;26.032;2023-08-12T00:04:51;100903.94;;;21.73;54.83
79123;BME280;68526;44.600;26.032;2023-08-12T00:05:08;100891.94;;;21.69;54.83
79123;BME280;68526;44.600;26.032;2023-08-12T00:05:26;100899.56;;;21.72;54.63
79123;BME280;68526;44.600;26.032;2023-08-12T00:05:42;100897.16;;;21.70;54.63
79123;BME280;68526;44.600;26.032;2023-08-12T00:05:59;100899.97;;;21.74;54.92
79123;BME280;68526;44.600;26.032;2023-08-12T00:06:16;100897.56;;;21.72;54.77
79123;BME280;68526;44.600;26.032;2023-08-12T00:06:31;100896.31;;;21.70;54.92
79123;BME280;68526;44.600;26.032;2023-08-12T00:06:47;100896.31;;;21.70;54.77
79123;BME280;68526;44.600;26.032;2023-08-12T00:07:04;100903.53;;;21.71;54.69
79123;BME280;68526;44.600;26.032;2023-08-12T00:07:20;100903.09;;;21.69;54.88
79123;BME280;68526;44.600;26.032;2023-08-12T00:07:36;100902.28;;;21.68;54.84
79123;BME280;68526;44.600;26.032;2023-08-12T00:07:52;100897.09;;;21.67;54.84
79123;BME280;68526;44.600;26.032;2023-08-12T00:08:08;100900.69;;;21.67;54.90
79123;BME280;68526;44.600;26.032;2023-08-12T00:08:24;100897.97;;;21.71;54.75
79123;BME280;68526;44.600;26.032;2023-08-12T00:08:40;100903.53;;;21.71;54.80
79123;BME280;68526;44.600;26.032;2023-08-12T00:08:56;100899.56;;;21.72;54.82
79123;BME280;68526;44.600;26.032;2023-08-12T00:09:13;100906.31;;;21.71;54.83
79123;BME280;68526;44.600;26.032;2023-08-12T00:09:30;100894.38;;;21.70;54.84
79123;BME280;68526;44.600;26.032;2023-08-12T00:09:46;100900.31;;;21.69;54.83
79123;BME280;68526;44.600;26.032;2023-08-12T00:10:03;100901.91;;;21.70;54.88
79123;BME280;68526;44.600;26.032;2023-08-12T00:10:19;100903.88;;;21.69;54.71
79123;BME280;68526;44.600;26.032;2023-08-12T00:10:36;100905.88;;;21.69;54.87
79123;BME280;68526;44.600;26.032;2023-08-12T00:10:52;100897.50;;;21.69;55.06
79123;BME280;68526;44.600;26.032;2023-08-12T00:11:08;100892.75;;;21.69;54.72
79123;BME280;68526;44.600;26.032;2023-08-12T00:11:23;100898.72;;;21.68;54.75
79123;BME280;68526;44.600;26.032;2023-08-12T00:11:39;100900.69;;;21.67;55.08
79123;BME280;68526;44.600;26.032;2023-08-12T00:11:55;100894.72;;;21.69;54.86
79123;BME280;68526;44.600;26.032;2023-08-12T00:12:12;100900.69;;;21.67;54.99
79123;BME280;68526;44.600;26.032;2023-08-12T00:12:28;100906.28;;;21.67;54.89
79123;BME280;68526;44.600;26.032;2023-08-12T00:12:44;100898.28;;;21.66;54.80
79123;BME280;68526;44.600;26.032;2023-08-12T00:13:00;100900.28;;;21.65;54.83
79123;BME280;68526;44.600;26.032;2023-08-12T00:13:16;100893.06;;;21.64;54.93
79123;BME280;68526;44.600;26.032;2023-08-12T00:13:33;100902.63;;;21.63;55.02
79123;BME280;68526;44.600;26.032;2023-08-12T00:13:48;100895.47;;;21.62;55.01
79123;BME280;68526;44.600;26.032;2023-08-12T00:14:05;100900.63;;;21.60;55.00
79123;BME280;68526;44.600;26.032;2023-08-12T00:14:21;100903.03;;;21.62;55.06
79123;BME280;68526;44.600;26.032;2023-08-12T00:14:37;100900.63;;;21.60;55.11
79123;BME280;68526;44.600;26.032;2023-08-12T00:14:52;100891.81;;;21.58;55.22
79123;BME280;68526;44.600;26.032;2023-08-12T00:15:09;100894.25;;;21.59;54.78
79123;BME280;68526;44.600;26.032;2023-08-12T00:15:25;100901.81;;;21.59;54.87
79123;BME280;68526;44.600;26.032;2023-08-12T00:15:41;100901.81;;;21.59;54.93
79123;BME280;68526;44.600;26.032;2023-08-12T00:15:58;100899.81;;;21.59;54.98
79123;BME280;68526;44.600;26.032;2023-08-12T00:16:15;100895.44;;;21.58;54.90
79123;BME280;68526;44.600;26.032;2023-08-12T00:16:31;100899.81;;;21.59;54.77
79123;BME280;68526;44.600;26.032;2023-08-12T00:16:48;100897.03;;;21.59;54.87
79123;BME280;68526;44.600;26.032;2023-08-12T00:17:05;100894.59;;;21.58;55.17
79123;BME280;68526;44.600;26.032;2023-08-12T00:17:21;100900.19;;;21.58;55.06
79123;BME280;68526;44.600;26.032;2023-08-12T00:17:37;100897.78;;;21.56;54.82
79123;BME280;68526;44.600;26.032;2023-08-12T00:17:56;100894.59;;;21.54;54.69
79123;BME280;68526;44.600;26.032;2023-08-12T00:18:12;100898.19;;;21.55;54.83
79123;BME280;68526;44.600;26.032;2023-08-12T00:18:28;100901.75;;;21.55;54.76
79123;BME280;68526;44.600;26.032;2023-08-12T00:18:44;100902.16;;;21.54;54.90
79123;BME280;68526;44.600;26.032;2023-08-12T00:19:01;100896.56;;;21.54;54.83
79123;BME280;68526;44.600;26.032;2023-08-12T00:19:17;100900.16;;;21.54;54.84
79123;BME280;68526;44.600;26.032;2023-08-12T00:19:33;100897.38;;;21.54;55.08
79123;BME280;68526;44.600;26.032;2023-08-12T00:19:49;100891.38;;;21.52;55.09
79123;BME280;68526;44.600;26.032;2023-08-12T00:20:06;100899.75;;;21.52;54.86
79123;BME280;68526;44.600;26.032;2023-08-12T00:20:23;100898.56;;;21.53;55.05
79123;BME280;68526;44.600;26.032;2023-08-12T00:20:40;100898.56;;;21.53;54.99
79123;BME280;68526;44.600;26.032;2023-08-12T00:20:57;100898.56;;;21.53;55.10
79123;BME280;68526;44.600;26.032;2023-08-12T00:21:14;100901.72;;;21.52;55.05
79123;BME280;68526;44.600;26.032;2023-08-12T00:21:30;100895.34;;;21.51;55.00
79123;BME280;68526;44.600;26.032;2023-08-12T00:21:46;100896.13;;;21.52;54.95
79123;BME280;68526;44.600;26.032;2023-08-12T00:22:02;100896.97;;;21.52;54.93
79123;BME280;68526;44.600;26.032;2023-08-12T00:22:19;100900.97;;;21.55;54.96
79123;BME280;68526;44.600;26.032;2023-08-12T00:22:36;100896.56;;;21.54;54.96
79123;BME280;68526;44.600;26.032;2023-08-12T00:22:52;100894.59;;;21.54;55.06
79123;BME280;68526;44.600;26.032;2023-08-12T00:23:08;100902.16;;;21.54;55.08
79123;BME280;68526;44.600;26.032;2023-08-12T00:23:24;100894.19;;;21.52;55.22
79123;BME280;68526;44.600;26.032;2023-08-12T00:23:40;100894.19;;;21.52;55.00
79123;BME280;68526;44.600;26.032;2023-08-12T00:23:56;100896.53;;;21.50;55.08
79123;BME280;68526;44.600;26.032;2023-08-12T00:24:12;100900.09;;;21.51;54.92
79123;BME280;68526;44.600;26.032;2023-08-12T00:24:28;100901.69;;;21.48;55.11
79123;BME280;68526;44.600;26.032;2023-08-12T00:24:44;100899.69;;;21.49;55.22
79123;BME280;68526;44.600;26.032;2023-08-12T00:25:00;100892.94;;;21.50;55.10
79123;BME280;68526;44.600;26.032;2023-08-12T00:25:16;100898.13;;;21.51;54.93
79123;BME280;68526;44.600;26.032;2023-08-12T00:25:32;100894.53;;;21.51;55.05
79123;BME280;68526;44.600;26.032;2023-08-12T00:25:49;100891.75;;;21.51;55.20
79123;BME280;68526;44.600;26.032;2023-08-12T00:26:06;100899.31;;;21.50;55.24
79123;BME280;68526;44.600;26.032;2023-08-12T00:26:21;100890.16;;;21.50;55.31
79123;BME280;68526;44.600;26.032;2023-08-12T00:26:37;100894.94;;;21.49;55.00
79123;BME280;68526;44.600;26.032;2023-08-12T00:26:53;100892.94;;;21.50;55.18
79123;BME280;68526;44.600;26.032;2023-08-12T00:27:09;100893.72;;;21.50;54.97
79123;BME280;68526;44.600;26.032;2023-08-12T00:27:25;100895.34;;;21.51;55.06
79123;BME280;68526;44.600;26.032;2023-08-12T00:27:40;100892.94;;;21.50;55.17
79123;BME280;68526;44.600;26.032;2023-08-12T00:27:57;100892.94;;;21.50;55.36
79123;BME280;68526;44.600;26.032;2023-08-12T00:28:13;100896.53;;;21.50;55.15
79123;BME280;68526;44.600;26.032;2023-08-12T00:28:29;100891.38;;;21.52;55.02
79123;BME280;68526;44.600;26.032;2023-08-12T00:28:44;100896.97;;;21.52;55.11
79123;BME280;68526;44.600;26.032;2023-08-12T00:29:00;100893.72;;;21.50;55.17
79123;BME280;68526;44.600;26.032;2023-08-12T00:29:16;100893.72;;;21.50;55.30
79123;BME280;68526;44.600;26.032;2023-08-12T00:29:32;100896.53;;;21.50;55.32
79123;BME280;68526;44.600;26.032;2023-08-12T00:29:48;100900.50;;;21.49;55.29
79123;BME280;68526;44.600;26.032;2023-08-12T00:30:06;100890.53;;;21.48;55.34
79123;BME280;68526;44.600;26.032;2023-08-12T00:30:22;100889.34;;;21.49;55.44
79123;BME280;68526;44.600;26.032;2023-08-12T00:30:37;100894.94;;;21.49;55.44
79123;BME280;68526;44.600;26.032;2023-08-12T00:30:53;100896.09;;;21.48;55.45
79123;BME280;68526;44.600;26.032;2023-08-12T00:31:09;100893.31;;;21.48;55.58
79123;BME280;68526;44.600;26.032;2023-08-12T00:31:25;100896.91;;;21.49;55.49
79123;BME280;68526;44.600;26.032;2023-08-12T00:31:41;100895.31;;;21.48;55.43
79123;BME280;68526;44.600;26.032;2023-08-12T00:31:57;100896.50;;;21.47;55.60
79123;BME280;68526;44.600;26.032;2023-08-12T00:32:13;100892.88;;;21.46;55.67
79123;BME280;68526;44.600;26.032;2023-08-12T00:32:29;100894.06;;;21.45;55.74
79123;BME280;68526;44.600;26.032;2023-08-12T00:32:45;100899.66;;;21.45;55.61
79123;BME280;68526;44.600;26.032;2023-08-12T00:33:00;100897.66;;;21.46;55.75
79123;BME280;68526;44.600;26.032;2023-08-12T00:33:17;100888.88;;;21.44;55.88
79123;BME280;68526;44.600;26.032;2023-08-12T00:33:33;100896.84;;;21.42;55.70
79123;BME280;68526;44.600;26.032;2023-08-12T00:33:50;100895.59;;;21.39;55.72
79123;BME280;68526;44.600;26.032;2023-08-12T00:34:07;100891.22;;;21.38;55.50
79123;BME280;68526;44.600;26.032;2023-08-12T00:34:23;100892.41;;;21.37;55.69
79123;BME280;68526;44.600;26.032;2023-08-12T00:34:39;100900.38;;;21.39;55.69
79123;BME280;68526;44.600;26.032;2023-08-12T00:34:55;100897.59;;;21.39;55.75
79123;BME280;68526;44.600;26.032;2023-08-12T00:35:10;100891.22;;;21.38;55.78
79123;BME280;68526;44.600;26.032;2023-08-12T00:35:26;100894.78;;;21.39;55.78
79123;BME280;68526;44.600;26.032;2023-08-12T00:35:42;100894.00;;;21.38;55.76
79123;BME280;68526;44.600;26.032;2023-08-12T00:35:58;100897.59;;;21.39;55.63
79123;BME280;68526;44.600;26.032;2023-08-12T00:36:15;100895.59;;;21.39;55.87
79123;BME280;68526;44.600;26.032;2023-08-12T00:36:30;100896.78;;;21.38;56.02
79123;BME280;68526;44.600;26.032;2023-08-12T00:36:46;100892.41;;;21.37;55.99
79123;BME280;68526;44.600;26.032;2023-08-12T00:37:02;100891.97;;;21.35;55.99
79123;BME280;68526;44.600;26.032;2023-08-12T00:37:18;100887.22;;;21.36;56.03
79123;BME280;68526;44.600;26.032;2023-08-12T00:37:34;100901.16;;;21.36;56.01
79123;BME280;68526;44.600;26.032;2023-08-12T00:37:49;100887.97;;;21.32;56.14
79123;BME280;68526;44.600;26.032;2023-08-12T00:38:06;100900.34;;;21.35;56.15
79123;BME280;68526;44.600;26.032;2023-08-12T00:38:22;100890.75;;;21.32;55.82
79123;BME280;68526;44.600;26.032;2023-08-12T00:38:38;100893.53;;;21.32;56.05
79123;BME280;68526;44.600;26.032;2023-08-12T00:38:54;100899.88;;;21.29;55.94
79123;BME280;68526;44.600;26.032;2023-08-12T00:39:09;100888.72;;;21.29;55.68
79123;BME280;68526;44.600;26.032;2023-08-12T00:39:25;100890.72;;;21.29;55.81
79123;BME280;68526;44.600;26.032;2023-08-12T00:39:41;100895.09;;;21.30;55.97
79123;BME280;68526;44.600;26.032;2023-08-12T00:39:58;100894.31;;;21.29;56.11
79123;BME280;68526;44.600;26.032;2023-08-12T00:40:14;100894.31;;;21.29;56.00
79123;BME280;68526;44.600;26.032;2023-08-12T00:40:30;100886.75;;;21.30;55.93
79123;BME280;68526;44.600;26.032;2023-08-12T00:40:46;100888.72;;;21.29;56.08
79123;BME280;68526;44.600;26.032;2023-08-12T00:41:03;100885.47;;;21.27;55.86
79123;BME280;68526;44.600;26.032;2023-08-12T00:41:18;100890.25;;;21.27;56.01
79123;BME280;68526;44.600;26.032;2023-08-12T00:41:34;100895.00;;;21.26;55.99
79123;BME280;68526;44.600;26.032;2023-08-12T00:41:51;100892.66;;;21.28;55.90
79123;BME280;68526;44.600;26.032;2023-08-12T00:42:07;100887.94;;;21.29;55.89
79123;BME280;68526;44.600;26.032;2023-08-12T00:42:23;100894.31;;;21.29;56.23
79123;BME280;68526;44.600;26.032;2023-08-12T00:42:38;100897.09;;;21.29;56.24
79123;BME280;68526;44.600;26.032;2023-08-12T00:42:54;100892.66;;;21.28;56.23
79123;BME280;68526;44.600;26.032;2023-08-12T00:43:10;100884.28;;;21.28;56.29
79123;BME280;68526;44.600;26.032;2023-08-12T00:43:27;100889.44;;;21.26;56.39
79123;BME280;68526;44.600;26.032;2023-08-12T00:43:44;100895.81;;;21.27;56.38
79123;BME280;68526;44.600;26.032;2023-08-12T00:44:00;100893.84;;;21.27;56.26
79123;BME280;68526;44.600;26.032;2023-08-12T00:44:15;100893.41;;;21.25;56.30
79123;BME280;68526;44.600;26.032;2023-08-12T00:44:31;100890.63;;;21.25;56.38
79123;BME280;68526;44.600;26.032;2023-08-12T00:44:47;100889.84;;;21.25;56.02
79123;BME280;68526;44.600;26.032;2023-08-12T00:45:03;100893.00;;;21.23;56.05
79123;BME280;68526;44.600;26.032;2023-08-12T00:45:21;100894.16;;;21.22;56.06
79123;BME280;68526;44.600;26.032;2023-08-12T00:45:38;100891.03;;;21.24;56.00
79123;BME280;68526;44.600;26.032;2023-08-12T00:45:54;100896.59;;;21.24;56.05
79123;BME280;68526;44.600;26.032;2023-08-12T00:46:10;100885.81;;;21.22;55.96
79123;BME280;68526;44.600;26.032;2023-08-12T00:46:26;100883.41;;;21.21;55.97
79123;BME280;68526;44.600;26.032;2023-08-12T00:46:42;100890.16;;;21.20;56.03
79123;BME280;68526;44.600;26.032;2023-08-12T00:46:59;100895.72;;;21.20;55.94
79123;BME280;68526;44.600;26.032;2023-08-12T00:47:16;100890.56;;;21.18;56.04
79123;BME280;68526;44.600;26.032;2023-08-12T00:47:32;100891.34;;;21.19;56.17
79123;BME280;68526;44.600;26.032;2023-08-12T00:47:49;100888.50;;;21.15;55.89
79123;BME280;68526;44.600;26.032;2023-08-12T00:48:06;100892.16;;;21.19;56.08
79123;BME280;68526;44.600;26.032;2023-08-12T00:48:23;100894.56;;;21.21;55.89
79123;BME280;68526;44.600;26.032;2023-08-12T00:48:39;100893.75;;;21.20;56.21
79123;BME280;68526;44.600;26.032;2023-08-12T00:48:55;100888.56;;;21.19;56.19
79123;BME280;68526;44.600;26.032;2023-08-12T00:49:13;100890.16;;;21.20;56.12
79123;BME280;68526;44.600;26.032;2023-08-12T00:49:30;100881.34;;;21.14;56.11
79123;BME280;68526;44.600;26.032;2023-08-12T00:49:48;100889.78;;;21.21;56.24
79123;BME280;68526;44.600;26.032;2023-08-12T00:50:05;100894.56;;;21.21;55.96
79123;BME280;68526;44.600;26.032;2023-08-12T00:50:21;100891.34;;;21.19;56.22
79123;BME280;68526;44.600;26.032;2023-08-12T00:50:38;100896.47;;;21.17;56.19
79123;BME280;68526;44.600;26.032;2023-08-12T00:50:54;100889.38;;;21.19;56.18
79123;BME280;68526;44.600;26.032;2023-08-12T00:51:10;100886.97;;;21.18;56.10
79123;BME280;68526;44.600;26.032;2023-08-12T00:51:26;100889.75;;;21.18;56.18
79123;BME280;68526;44.600;26.032;2023-08-12T00:51:44;100890.09;;;21.16;56.08
79123;BME280;68526;44.600;26.032;2023-08-12T00:52:01;100881.75;;;21.16;56.11
79123;BME280;68526;44.600;26.032;2023-08-12T00:52:17;100889.75;;;21.18;56.14
79123;BME280;68526;44.600;26.032;2023-08-12T00:52:34;100886.16;;;21.17;56.17
79123;BME280;68526;44.600;26.032;2023-08-12T00:52:50;100890.91;;;21.17;56.13
79123;BME280;68526;44.600;26.032;2023-08-12T00:53:07;100884.91;;;21.11;56.18
79123;BME280;68526;44.600;26.032;2023-08-12T00:53:24;100888.09;;;21.13;56.13
79123;BME280;68526;44.600;26.032;2023-08-12T00:53:39;100887.28;;;21.13;56.14
79123;BME280;68526;44.600;26.032;2023-08-12T00:53:57;100892.47;;;21.14;56.27
79123;BME280;68526;44.600;26.032;2023-08-12T00:54:14;100882.91;;;21.12;56.23
79123;BME280;68526;44.600;26.032;2023-08-12T00:54:32;100887.28;;;21.13;55.96
79123;BME280;68526;44.600;26.032;2023-08-12T00:54:47;100889.63;;;21.11;56.18
79123;BME280;68526;44.600;26.032;2023-08-12T00:55:05;100889.63;;;21.11;56.00
79123;BME280;68526;44.600;26.032;2023-08-12T00:55:21;100887.25;;;21.09;56.25
79123;BME280;68526;44.600;26.032;2023-08-12T00:55:37;100885.63;;;21.08;56.26
79123;BME280;68526;44.600;26.032;2023-08-12T00:55:53;100890.03;;;21.09;55.99
79123;BME280;68526;44.600;26.032;2023-08-12T00:56:10;100891.22;;;21.08;56.27
79123;BME280;68526;44.600;26.032;2023-08-12T00:56:26;100884.84;;;21.07;56.42
79123;BME280;68526;44.600;26.032;2023-08-12T00:56:42;100884.44;;;21.05;56.36
79123;BME280;68526;44.600;26.032;2023-08-12T00:56:58;100882.78;;;21.04;56.29
79123;BME280;68526;44.600;26.032;2023-08-12T00:57:15;100885.56;;;21.04;56.37
79123;BME280;68526;44.600;26.032;2023-08-12T00:57:31;100887.56;;;21.04;56.27
79123;BME280;68526;44.600;26.032;2023-08-12T00:57:47;100886.75;;;21.03;56.37
79123;BME280;68526;44.600;26.032;2023-08-12T00:58:03;100881.97;;;21.00;56.29
79123;BME280;68526;44.600;26.032;2023-08-12T00:58:20;100885.09;;;20.99;56.16
79123;BME280;68526;44.600;26.032;2023-08-12T00:58:35;100892.34;;;21.03;56.34
79123;BME280;68526;44.600;26.032;2023-08-12T00:58:52;100891.53;;;21.03;56.42
79123;BME280;68526;44.600;26.032;2023-08-12T00:59:09;100898.28;;;21.02;56.46
79123;BME280;68526;44.600;26.032;2023-08-12T00:59:25;100889.13;;;21.01;56.36
79123;BME280;68526;44.600;26.032;2023-08-12T00:59:41;100888.72;;;20.99;55.88
79123;BME280;68526;44.600;26.032;2023-08-12T00:59:59;100889.53;;;21.00;55.81
79123;BME280;68526;44.600;26.032;2023-08-12T01:00:16;100890.31;;;21.00;56.02
79123;BME280;68526;44.600;26.032;2023-08-12T01:00:33;100889.06;;;20.98;56.03
79123;BME280;68526;44.600;26.032;2023-08-12T01:00:49;100896.69;;;21.01;55.91
79123;BME280;68526;44.600;26.032;2023-08-12T01:01:07;100890.31;;;21.00;55.99
79123;BME280;68526;44.600;26.032;2023-08-12T01:01:23;100896.69;;;21.01;56.21
79123;BME280;68526;44.600;26.032;2023-08-12T01:01:40;100889.88;;;20.98;56.16
79123;BME280;68526;44.600;26.032;2023-08-12T01:01:56;100898.22;;;20.98;55.87
79123;BME280;68526;44.600;26.032;2023-08-12T01:02:12;100887.06;;;20.95;55.96
79123;BME280;68526;44.600;26.032;2023-08-12T01:02:28;100892.31;;;21.00;56.15
79123;BME280;68526;44.600;26.032;2023-08-12T01:02:44;100885.88;;;20.96;55.98
79123;BME280;68526;44.600;26.032;2023-08-12T01:03:04;100895.44;;;20.98;55.98
79123;BME280;68526;44.600;26.032;2023-08-12T01:03:22;100890.25;;;20.97;56.14
79123;BME280;68526;44.600;26.032;2023-08-12T01:03:38;100891.06;;;20.97;56.10
79123;BME280;68526;44.600;26.032;2023-08-12T01:03:54;100892.25;;;20.96;56.11
79123;BME280;68526;44.600;26.032;2023-08-12T01:04:10;100892.25;;;20.96;56.22
79123;BME280;68526;44.600;26.032;2023-08-12T01:04:27;100895.41;;;20.95;56.26
79123;BME280;68526;44.600;26.032;2023-08-12T01:04:43;100893.03;;;20.93;56.06
79123;BME280;68526;44.600;26.032;2023-08-12T01:04:59;100891.84;;;20.94;55.71
79123;BME280;68526;44.600;26.032;2023-08-12T01:05:16;100898.19;;;20.95;55.99
79123;BME280;68526;44.600;26.032;2023-08-12T01:05:32;100898.19;;;20.95;55.98
79123;BME280;68526;44.600;26.032;2023-08-12T01:05:49;100890.66;;;20.95;56.09
79123;BME280;68526;44.600;26.032;2023-08-12T01:06:06;100894.63;;;20.94;56.18
79123;BME280;68526;44.600;26.032;2023-08-12T01:06:23;100899.00;;;20.95;55.96
79123;BME280;68526;44.600;26.032;2023-08-12T01:06:39;100891.03;;;20.94;55.87
79123;BME280;68526;44.600;26.032;2023-08-12T01:06:55;100898.63;;;20.97;55.78
79123;BME280;68526;44.600;26.032;2023-08-12T01:07:12;100893.06;;;20.97;55.86
79123;BME280;68526;44.600;26.032;2023-08-12T01:07:28;100893.44;;;20.95;55.98
79123;BME280;68526;44.600;26.032;2023-08-12T01:07:43;100891.84;;;20.94;55.89
79123;BME280;68526;44.600;26.032;2023-08-12T01:08:00;100885.88;;;20.96;55.66
79123;BME280;68526;44.600;26.032;2023-08-12T01:08:16;100899.81;;;20.96;55.99
79123;BME280;68526;44.600;26.032;2023-08-12T01:08:32;100888.25;;;20.94;56.36
79123;BME280;68526;44.600;26.032;2023-08-12T01:08:49;100889.78;;;20.91;56.20
79123;BME280;68526;44.600;26.032;2023-08-12T01:09:06;100887.44;;;20.93;56.32
79123;BME280;68526;44.600;26.032;2023-08-12T01:09:22;100885.03;;;20.92;56.41
79123;BME280;68526;44.600;26.032;2023-08-12T01:09:38;100891.78;;;20.91;56.19
79123;BME280;68526;44.600;26.032;2023-08-12T01:09:54;100894.56;;;20.91;56.15
79123;BME280;68526;44.600;26.032;2023-08-12T01:10:10;100896.53;;;20.90;56.33
79123;BME280;68526;44.600;26.032;2023-08-12T01:10:35;100898.53;;;20.90;56.19
79123;BME280;68526;44.600;26.032;2023-08-12T01:11:10;100893.34;;;20.88;56.25
79123;BME280;68526;44.600;26.032;2023-08-12T01:11:29;100886.16;;;20.87;56.09
79123;BME280;68526;44.600;26.032;2023-08-12T01:11:50;100892.09;;;20.86;56.28
79123;BME280;68526;44.600;26.032;2023-08-12T01:12:13;100888.97;;;20.87;56.16
79123;BME280;68526;44.600;26.032;2023-08-12T01:12:36;100888.13;;;20.87;56.18
79123;BME280;68526;44.600;26.032;2023-08-12T01:12:59;100894.88;;;20.86;56.16
79123;BME280;68526;44.600;26.032;2023-08-12T01:13:24;100891.28;;;20.85;56.06
79123;BME280;68526;44.600;26.032;2023-08-12T01:13:46;100883.75;;;20.86;56.27
79123;BME280;68526;44.600;26.032;2023-08-12T01:14:07;100895.69;;;20.86;56.13
79123;BME280;68526;44.600;26.032;2023-08-12T01:14:28;100892.47;;;20.84;56.15
79123;BME280;68526;44.600;26.032;2023-08-12T01:14:56;100894.09;;;20.85;56.04
79123;BME280;68526;44.600;26.032;2023-08-12T01:15:16;100890.50;;;20.85;56.11
79123;BME280;68526;44.600;26.032;2023-08-12T01:15:33;100888.50;;;20.85;56.20
79123;BME280;68526;44.600;26.032;2023-08-12T01:15:52;100892.47;;;20.84;55.98
79123;BME280;68526;44.600;26.032;2023-08-12T01:16:12;100886.53;;;20.86;56.04
79123;BME280;68526;44.600;26.032;2023-08-12T01:16:30;100888.09;;;20.83;56.18
79123;BME280;68526;44.600;26.032;2023-08-12T01:16:51;100890.50;;;20.85;56.18
79123;BME280;68526;44.600;26.032;2023-08-12T01:17:10;100891.25;;;20.82;55.98
79123;BME280;68526;44.600;26.032;2023-08-12T01:17:28;100892.88;;;20.83;55.86
79123;BME280;68526;44.600;26.032;2023-08-12T01:17:45;100886.50;;;20.82;55.96
79123;BME280;68526;44.600;26.032;2023-08-12T01:18:04;100894.41;;;20.80;56.24
79123;BME280;68526;44.600;26.032;2023-08-12T01:18:21;100887.63;;;20.77;56.20
79123;BME280;68526;44.600;26.032;2023-08-12T01:18:39;100886.44;;;20.78;56.18
79123;BME280;68526;44.600;26.032;2023-08-12T01:18:58;100892.00;;;20.78;56.25
79123;BME280;68526;44.600;26.032;2023-08-12T01:19:22;100892.41;;;20.80;56.23
79123;BME280;68526;44.600;26.032;2023-08-12T01:20:03;100888.41;;;20.78;56.14
79123;BME280;68526;44.600;26.032;2023-08-12T01:20:25;100886.75;;;20.73;56.24
79123;BME280;68526;44.600;26.032;2023-08-12T01:20:42;100890.78;;;20.76;56.32
79123;BME280;68526;44.600;26.032;2023-08-12T01:20:58;100894.38;;;20.76;56.38
79123;BME280;68526;44.600;26.032;2023-08-12T01:21:16;100891.59;;;20.76;56.51
79123;BME280;68526;44.600;26.032;2023-08-12T01:21:33;100889.97;;;20.75;56.43
79123;BME280;68526;44.600;26.032;2023-08-12T01:21:53;100894.31;;;20.73;56.10
79123;BME280;68526;44.600;26.032;2023-08-12T01:22:10;100891.59;;;20.76;56.28
79123;BME280;68526;44.600;26.032;2023-08-12T01:22:27;100891.59;;;20.76;56.36
79123;BME280;68526;44.600;26.032;2023-08-12T01:22:48;100890.34;;;20.74;56.44
79123;BME280;68526;44.600;26.032;2023-08-12T01:23:12;100891.91;;;20.71;56.50
79123;BME280;68526;44.600;26.032;2023-08-12T01:23:28;100891.53;;;20.73;56.50
79123;BME280;68526;44.600;26.032;2023-08-12T01:23:44;100888.31;;;20.71;56.24
79123;BME280;68526;44.600;26.032;2023-08-12T01:24:00;100886.34;;;20.71;56.36
79123;BME280;68526;44.600;26.032;2023-08-12T01:24:16;100883.16;;;20.73;56.17
79123;BME280;68526;44.600;26.032;2023-08-12T01:24:35;100888.75;;;20.73;56.30
79123;BME280;68526;44.600;26.032;2023-08-12T01:24:53;100884.34;;;20.72;56.08
79123;BME280;68526;44.600;26.032;2023-08-12T01:25:08;100889.13;;;20.71;56.08
79123;BME280;68526;44.600;26.032;2023-08-12T01:25:25;100884.28;;;20.68;56.32
79123;BME280;68526;44.600;26.032;2023-08-12T01:25:41;100885.91;;;20.69;56.40
79123;BME280;68526;44.600;26.032;2023-08-12T01:25:57;100888.69;;;20.69;55.89
79123;BME280;68526;44.600;26.032;2023-08-12T01:26:13;100886.72;;;20.70;56.27
79123;BME280;68526;44.600;26.032;2023-08-12T01:26:28;100887.53;;;20.70;56.36
79123;BME280;68526;44.600;26.032;2023-08-12T01:26:45;100888.25;;;20.67;56.02
79123;BME280;68526;44.600;26.032;2023-08-12T01:27:01;100887.47;;;20.67;56.12
79123;BME280;68526;44.600;26.032;2023-08-12T01:27:17;100894.22;;;20.66;56.45